createdAt,value
2017-09-08T00:02:22.827Z,70.30
2017-09-08T00:04:50.483Z,70.40
2017-09-08T00:07:18.150Z,70.40
2017-09-08T00:09:45.920Z,70.40
2017-09-08T00:12:13.612Z,70.40
2017-09-08T00:14:41.320Z,70.40
2017-09-08T00:17:08.984Z,70.40
2017-09-08T00:19:36.691Z,70.60
2017-09-08T00:22:05.276Z,70.70
2017-09-08T00:24:33.003Z,70.50
2017-09-08T00:27:00.672Z,70.50
2017-09-08T00:29:28.380Z,70.70
2017-09-08T00:31:56.843Z,71.10
2017-09-08T00:34:25.323Z,70.80
2017-09-08T00:36:53.753Z,71.20
2017-09-08T00:39:21.464Z,71.20
2017-09-08T00:41:49.947Z,70.80
2017-09-08T00:44:18.427Z,70.80
2017-09-08T00:46:46.867Z,71.00
2017-09-08T00:49:14.600Z,71.00
2017-09-08T00:51:42.344Z,71.70
2017-09-08T00:54:10.123Z,71.50
2017-09-08T00:56:37.809Z,71.30
2017-09-08T00:59:05.528Z,71.50
2017-09-08T01:01:33.188Z,71.60
2017-09-08T01:04:00.913Z,71.60
2017-09-08T01:06:28.612Z,71.50
2017-09-08T01:08:56.356Z,71.50
2017-09-08T01:11:24.879Z,71.70
2017-09-08T01:13:52.560Z,71.70
2017-09-08T01:16:21.568Z,72.00
2017-09-08T01:18:50.000Z,72.10
2017-09-08T01:21:17.699Z,72.00
2017-09-08T01:23:45.359Z,72.30
2017-09-08T01:26:13.071Z,72.20
2017-09-08T01:28:40.736Z,72.40
2017-09-08T01:31:08.440Z,73.30
2017-09-08T01:33:36.095Z,72.60
2017-09-08T01:36:03.795Z,72.70
2017-09-08T01:38:31.459Z,73.00
2017-09-08T01:40:59.167Z,73.10
2017-09-08T01:43:26.832Z,73.70
2017-09-08T01:45:54.536Z,73.30
2017-09-08T01:48:22.203Z,73.30
2017-09-08T01:50:49.907Z,73.30
2017-09-08T01:53:17.608Z,73.50
2017-09-08T01:55:45.301Z,73.50
2017-09-08T01:58:12.965Z,73.80
2017-09-08T02:00:40.728Z,73.60
2017-09-08T02:03:08.383Z,73.70
2017-09-08T02:05:36.039Z,73.70
2017-09-08T02:08:03.752Z,73.90
2017-09-08T02:10:32.175Z,74.20
2017-09-08T02:12:59.880Z,74.20
2017-09-08T02:15:28.312Z,74.30
2017-09-08T02:17:56.018Z,74.20
2017-09-08T02:20:24.438Z,74.60
2017-09-08T02:22:52.149Z,74.50
2017-09-08T02:25:19.863Z,74.60
2017-09-08T02:27:47.568Z,74.60
2017-09-08T02:30:15.228Z,75.00
2017-09-08T02:32:42.944Z,75.00
2017-09-08T02:35:10.617Z,75.20
2017-09-08T02:37:38.320Z,75.40
2017-09-08T02:40:06.748Z,75.60
2017-09-08T02:42:35.203Z,75.50
2017-09-08T02:45:03.716Z,75.70
2017-09-08T02:47:31.415Z,75.60
2017-09-08T02:49:59.836Z,76.50
2017-09-08T02:52:27.540Z,76.40
2017-09-08T02:54:55.200Z,76.20
2017-09-08T02:57:22.863Z,76.50
2017-09-08T02:59:51.339Z,76.50
2017-09-08T03:02:19.772Z,76.90
2017-09-08T03:04:47.472Z,76.40
2017-09-08T03:07:15.136Z,76.40
2017-09-08T03:09:42.843Z,76.50
2017-09-08T03:12:10.507Z,76.50
2017-09-08T03:14:38.219Z,76.70
2017-09-08T03:17:06.651Z,76.90
2017-09-08T03:19:34.358Z,76.80
2017-09-08T03:22:02.796Z,77.00
2017-09-08T03:24:30.515Z,77.00
2017-09-08T03:26:58.951Z,77.00
2017-09-08T03:29:26.696Z,77.00
2017-09-08T03:31:54.355Z,77.50
2017-09-08T03:34:22.056Z,77.80
2017-09-08T03:36:50.487Z,78.00
2017-09-08T03:39:18.214Z,77.90
2017-09-08T03:41:46.642Z,77.60
2017-09-08T03:44:14.395Z,77.60
2017-09-08T03:46:42.062Z,77.90
2017-09-08T03:49:09.763Z,78.00
2017-09-08T03:51:38.188Z,77.50
2017-09-08T03:54:05.896Z,77.50
2017-09-08T03:56:34.327Z,78.20
2017-09-08T03:59:01.988Z,78.20
2017-09-08T04:01:29.691Z,78.40
2017-09-08T04:03:58.120Z,78.80
2017-09-08T04:06:25.828Z,78.60
2017-09-08T04:08:54.262Z,79.20
2017-09-08T04:11:21.971Z,79.20
2017-09-08T04:13:50.436Z,79.40
2017-09-08T04:16:18.967Z,80.00
2017-09-08T04:18:46.632Z,79.90
2017-09-08T04:21:14.336Z,79.20
2017-09-08T04:23:42.764Z,78.80
2017-09-08T04:26:10.474Z,78.80
2017-09-08T04:28:38.896Z,78.60
2017-09-08T04:31:06.601Z,79.10
2017-09-08T04:33:34.264Z,79.50
2017-09-08T04:36:01.989Z,79.80
2017-09-08T04:38:29.655Z,79.50
2017-09-08T04:40:57.359Z,79.60
2017-09-08T04:43:25.823Z,79.50
2017-09-08T04:45:53.531Z,79.50
2017-09-08T04:48:21.204Z,79.50
2017-09-08T04:50:48.915Z,79.90
2017-09-08T04:53:17.344Z,79.60
2017-09-08T04:55:45.008Z,79.50
2017-09-08T04:58:12.707Z,80.40
2017-09-08T05:00:41.139Z,79.00
2017-09-08T05:03:08.851Z,78.90
2017-09-08T05:05:37.324Z,79.60
2017-09-08T05:08:05.837Z,79.30
2017-09-08T05:10:33.564Z,79.20
2017-09-08T05:13:02.074Z,79.20
2017-09-08T05:15:29.744Z,79.10
2017-09-08T05:17:57.449Z,79.50
2017-09-08T05:20:25.113Z,79.60
2017-09-08T05:22:52.820Z,80.00
2017-09-08T05:25:20.481Z,79.30
2017-09-08T05:27:48.184Z,79.00
2017-09-08T05:30:15.851Z,79.30
2017-09-08T05:32:43.560Z,79.00
2017-09-08T05:35:11.221Z,79.60
2017-09-08T05:37:38.926Z,78.60
2017-09-08T05:40:06.601Z,78.30
2017-09-08T05:42:35.075Z,77.90
2017-09-08T05:45:02.741Z,77.90
2017-09-08T05:47:31.223Z,77.60
2017-09-08T05:49:59.655Z,77.50
2017-09-08T05:52:27.364Z,77.40
2017-09-08T05:54:55.797Z,77.50
2017-09-08T05:57:23.462Z,77.50
2017-09-08T05:59:51.171Z,77.70
2017-09-08T06:02:19.599Z,77.60
2017-09-08T06:04:47.307Z,77.60
2017-09-08T06:07:15.728Z,77.20
2017-09-08T06:09:43.451Z,77.20
2017-09-08T06:12:11.124Z,76.90
2017-09-08T06:14:38.827Z,76.40
2017-09-08T06:17:06.540Z,76.30
2017-09-08T06:19:34.256Z,76.20
2017-09-08T06:22:01.927Z,75.60
2017-09-08T06:24:30.412Z,74.60
2017-09-08T06:26:58.859Z,75.00
2017-09-08T06:29:26.559Z,74.80
2017-09-08T06:31:54.228Z,74.40
2017-09-08T06:34:21.943Z,74.10
2017-09-08T06:36:49.609Z,74.20
2017-09-08T06:39:17.336Z,74.60
2017-09-08T06:41:44.999Z,73.90
2017-09-08T06:44:12.719Z,73.20
2017-09-08T06:46:40.392Z,73.10
2017-09-08T06:49:08.161Z,73.60
2017-09-08T06:51:35.836Z,73.00
2017-09-08T06:56:37.556Z,72.90
2017-09-08T06:59:05.994Z,73.10
2017-09-08T07:01:33.710Z,73.10
2017-09-08T07:04:01.373Z,73.10
2017-09-08T07:06:29.115Z,72.80
2017-09-08T07:08:57.541Z,72.60
2017-09-08T07:11:25.252Z,72.50
2017-09-08T07:13:53.712Z,72.40
2017-09-08T07:16:21.424Z,72.20
2017-09-08T07:18:49.079Z,72.20
2017-09-08T07:21:16.781Z,72.10
2017-09-08T07:23:44.460Z,71.70
2017-09-08T07:26:12.164Z,71.30
2017-09-08T07:28:39.820Z,71.80
2017-09-08T07:31:07.536Z,71.50
2017-09-08T07:33:35.191Z,71.60
2017-09-08T07:36:02.892Z,71.10
2017-09-08T07:38:30.552Z,71.20
2017-09-08T07:40:58.267Z,70.70
2017-09-08T07:43:25.937Z,70.70
2017-09-08T07:45:53.643Z,69.50
2017-09-08T07:48:21.354Z,69.70
2017-09-08T07:50:49.061Z,69.10
2017-09-08T07:53:16.735Z,68.70
2017-09-08T07:55:44.391Z,67.80
2017-09-08T07:58:12.094Z,67.40
2017-09-08T08:00:40.528Z,66.80
2017-09-08T08:03:08.282Z,66.70
2017-09-08T08:05:35.949Z,66.90
2017-09-08T08:08:03.659Z,65.90
2017-09-08T08:10:32.084Z,65.10
2017-09-08T08:12:59.792Z,65.80
2017-09-08T08:15:27.448Z,65.00
2017-09-08T08:17:55.152Z,65.10
2017-09-08T08:20:22.818Z,64.90
2017-09-08T08:22:50.524Z,64.00
2017-09-08T08:25:18.225Z,64.90
2017-09-08T08:27:45.935Z,64.30
2017-09-08T08:30:13.600Z,64.60
2017-09-08T08:32:41.300Z,63.90
2017-09-08T08:35:08.960Z,64.10
2017-09-08T08:37:36.667Z,64.40
2017-09-08T08:40:04.316Z,63.80
2017-09-08T08:42:32.057Z,63.70
2017-09-08T08:44:59.748Z,64.40
2017-09-08T08:47:27.460Z,64.00
2017-09-08T08:49:55.128Z,64.30
2017-09-08T08:52:22.784Z,63.40
2017-09-08T08:54:50.488Z,62.20
2017-09-08T08:57:18.163Z,62.50
2017-09-08T08:59:45.868Z,63.00
2017-09-08T09:02:13.554Z,61.90
2017-09-08T09:04:41.251Z,61.40
2017-09-08T09:07:09.681Z,60.50
2017-09-08T09:09:37.383Z,60.50
2017-09-08T09:12:05.041Z,60.40
2017-09-08T09:14:32.751Z,60.30
2017-09-08T09:17:00.413Z,60.30
2017-09-08T09:19:28.121Z,60.30
2017-09-08T09:21:55.782Z,60.20
2017-09-08T09:24:23.488Z,59.20
2017-09-08T09:26:51.156Z,60.20
2017-09-08T09:29:18.860Z,60.00
2017-09-08T09:31:46.521Z,60.80
2017-09-08T09:34:15.010Z,62.60
2017-09-08T09:36:43.441Z,60.90
2017-09-08T09:39:11.144Z,60.80
2017-09-08T09:41:38.805Z,61.40
2017-09-08T09:44:06.523Z,61.70
2017-09-08T09:46:34.184Z,62.60
2017-09-08T09:49:01.903Z,62.50
2017-09-08T09:51:29.560Z,62.40
2017-09-08T09:53:58.020Z,62.60
2017-09-08T09:56:26.494Z,63.40
2017-09-08T09:58:54.150Z,63.30
2017-09-08T10:01:21.855Z,62.40
2017-09-08T10:03:49.519Z,63.70
2017-09-08T10:06:17.236Z,63.40
2017-09-08T10:08:44.891Z,63.70
2017-09-08T10:11:12.632Z,64.20
2017-09-08T10:13:40.293Z,64.00
2017-09-08T10:16:07.996Z,63.80
2017-09-08T10:18:36.424Z,64.30
2017-09-08T10:21:04.163Z,64.40
2017-09-08T10:23:31.832Z,63.70
2017-09-08T10:25:59.545Z,63.40
2017-09-08T10:28:27.974Z,63.80
2017-09-08T10:30:55.667Z,63.80
2017-09-08T10:33:23.340Z,63.90
2017-09-08T10:35:51.820Z,63.70
2017-09-08T10:38:20.248Z,64.10
2017-09-08T10:40:47.940Z,64.10
2017-09-08T10:43:15.601Z,64.50
2017-09-08T10:45:43.304Z,63.70
2017-09-08T10:48:10.973Z,64.00
2017-09-08T10:50:38.643Z,64.50
2017-09-08T10:53:06.335Z,64.60
2017-09-08T10:55:34.000Z,64.40
2017-09-08T10:58:01.720Z,65.20
2017-09-08T11:00:29.385Z,65.20
2017-09-08T11:02:57.087Z,65.40
2017-09-08T11:05:25.521Z,65.10
2017-09-08T11:07:53.226Z,65.00
2017-09-08T11:10:20.893Z,65.30
2017-09-08T11:12:49.364Z,65.20
2017-09-08T11:15:17.788Z,65.60
2017-09-08T11:17:45.480Z,65.50
2017-09-08T11:20:13.136Z,65.10
2017-09-08T11:22:40.834Z,64.60
2017-09-08T11:25:09.256Z,64.80
2017-09-08T11:27:36.964Z,64.80
2017-09-08T11:30:04.620Z,65.30
2017-09-08T11:32:38.684Z,64.70
2017-09-08T11:35:11.938Z,64.60
2017-09-08T11:37:39.635Z,63.80
2017-09-08T11:40:08.095Z,62.90
2017-09-08T11:42:35.796Z,62.90
2017-09-08T11:45:03.481Z,63.00
2017-09-08T11:47:31.952Z,62.30
2017-09-08T11:50:00.383Z,63.40
2017-09-08T11:52:28.039Z,63.20
2017-09-08T11:54:55.740Z,61.30
2017-09-08T11:57:23.403Z,61.90
2017-09-08T11:59:51.888Z,63.30
2017-09-08T12:02:20.319Z,61.50
2017-09-08T12:04:48.009Z,61.40
2017-09-08T12:07:15.676Z,61.50
2017-09-08T12:09:43.375Z,62.00
2017-09-08T12:12:11.033Z,62.00
2017-09-08T12:14:38.740Z,62.20
2017-09-08T12:17:06.400Z,61.70
2017-09-08T12:19:34.100Z,61.00
2017-09-08T12:22:02.528Z,61.00
2017-09-08T12:24:30.230Z,61.00
2017-09-08T12:26:58.652Z,62.30
2017-09-08T12:29:26.361Z,62.30
2017-09-08T12:31:54.783Z,62.80
2017-09-08T12:34:22.488Z,62.80
2017-09-08T12:36:50.138Z,62.40
2017-09-08T12:39:17.833Z,64.00
2017-09-08T12:41:46.262Z,63.20
2017-09-08T12:44:13.968Z,63.20
2017-09-08T12:46:42.399Z,63.80
2017-09-08T12:49:10.105Z,63.70
2017-09-08T12:51:38.527Z,62.90
2017-09-08T12:54:06.248Z,62.90
2017-09-08T12:56:34.739Z,63.00
2017-09-08T12:59:02.400Z,62.90
2017-09-08T13:01:30.121Z,63.40
2017-09-08T13:03:57.788Z,63.50
2017-09-08T13:06:26.269Z,63.80
2017-09-08T13:08:53.929Z,63.70
2017-09-08T13:11:22.404Z,64.50
2017-09-08T13:13:50.836Z,64.70
2017-09-08T13:16:18.536Z,64.70
2017-09-08T13:18:46.244Z,64.20
2017-09-08T13:21:13.984Z,64.90
2017-09-08T13:23:41.646Z,64.80
2017-09-08T13:26:09.346Z,64.90
2017-09-08T13:28:37.012Z,65.00
2017-09-08T13:31:04.720Z,64.60
2017-09-08T13:33:32.376Z,64.50
2017-09-08T13:36:00.839Z,65.20
2017-09-08T13:38:28.548Z,65.20
2017-09-08T13:40:56.273Z,65.40
2017-09-08T13:43:23.999Z,64.70
2017-09-08T13:45:51.692Z,64.90
2017-09-08T13:48:20.129Z,64.80
2017-09-08T13:50:47.841Z,64.70
2017-09-08T13:53:15.549Z,64.50
2017-09-08T13:55:43.279Z,64.70
2017-09-08T13:58:10.948Z,64.60
2017-09-08T14:00:38.634Z,64.30
2017-09-08T14:03:06.352Z,64.20
2017-09-08T14:05:34.065Z,64.00
2017-09-08T14:08:01.772Z,64.00
2017-09-08T14:10:29.444Z,63.80
2017-09-08T14:12:57.180Z,62.20
2017-09-08T14:15:24.840Z,61.50
2017-09-08T14:17:52.591Z,61.40
2017-09-08T14:20:20.297Z,61.60
2017-09-08T14:22:48.009Z,60.20
2017-09-08T14:25:15.672Z,60.50
2017-09-08T14:27:44.161Z,59.90
2017-09-08T14:30:11.820Z,59.90
2017-09-08T14:32:39.521Z,60.30
2017-09-08T14:35:07.188Z,60.10
2017-09-08T14:37:34.892Z,60.20
2017-09-08T14:40:02.555Z,59.60
2017-09-08T14:42:30.305Z,59.80
2017-09-08T14:44:57.964Z,60.20
2017-09-08T14:47:26.448Z,61.00
2017-09-08T14:49:54.872Z,61.20
2017-09-08T14:52:22.533Z,61.10
2017-09-08T14:54:50.236Z,60.80
2017-09-08T14:57:17.908Z,61.10
2017-09-08T14:59:46.377Z,60.60
2017-09-08T15:02:14.053Z,60.50
2017-09-08T15:04:41.781Z,61.10
2017-09-08T15:07:09.440Z,61.10
2017-09-08T15:09:37.150Z,61.70
2017-09-08T15:12:04.818Z,61.90
2017-09-08T15:14:32.548Z,62.20
2017-09-08T15:17:00.968Z,61.10
2017-09-08T15:19:28.677Z,61.10
2017-09-08T15:21:56.342Z,61.80
2017-09-08T15:24:24.040Z,61.70
2017-09-08T15:26:51.711Z,62.00
2017-09-08T15:29:19.416Z,61.70
2017-09-08T15:31:47.077Z,62.40
2017-09-08T15:34:14.771Z,61.40
2017-09-08T15:36:42.427Z,61.70
2017-09-08T15:39:10.136Z,62.00
2017-09-08T15:41:37.798Z,61.70
2017-09-08T15:44:05.496Z,62.00
2017-09-08T15:46:33.170Z,62.20
2017-09-08T15:49:00.873Z,62.00
2017-09-08T15:51:28.533Z,62.20
2017-09-08T15:53:56.199Z,61.80
2017-09-08T15:56:24.670Z,61.30
2017-09-08T15:58:52.340Z,61.50
2017-09-08T16:01:20.811Z,61.40
2017-09-08T16:03:48.480Z,61.40
2017-09-08T16:06:16.199Z,61.90
2017-09-08T16:08:43.862Z,61.70
2017-09-08T16:11:11.564Z,61.90
2017-09-08T16:13:39.992Z,62.10
2017-09-08T16:16:13.048Z,62.00
2017-09-08T16:18:40.798Z,61.70
2017-09-08T16:21:09.273Z,62.20
2017-09-08T16:23:37.713Z,62.00
2017-09-08T16:26:05.455Z,62.00
2017-09-08T16:28:33.112Z,62.10
2017-09-08T16:31:00.813Z,62.40
2017-09-08T16:33:28.559Z,62.70
2017-09-08T16:35:56.262Z,62.40
2017-09-08T16:38:24.690Z,62.70
2017-09-08T16:40:52.396Z,62.70
2017-09-08T16:43:20.931Z,62.80
2017-09-08T16:45:48.644Z,62.80
2017-09-08T16:48:16.324Z,63.10
2017-09-08T16:50:43.976Z,63.10
2017-09-08T16:53:11.713Z,63.10
2017-09-08T16:55:40.146Z,63.00
2017-09-08T16:58:07.851Z,63.00
2017-09-08T17:00:35.520Z,62.70
2017-09-08T17:03:03.236Z,63.00
2017-09-08T17:05:30.899Z,63.00
2017-09-08T17:07:58.644Z,63.20
2017-09-08T17:10:26.300Z,63.30
2017-09-08T17:12:54.003Z,63.20
2017-09-08T17:15:22.452Z,63.40
2017-09-08T17:17:50.162Z,63.40
2017-09-08T17:20:17.861Z,63.10
2017-09-08T17:22:45.568Z,63.40
2017-09-08T17:25:13.276Z,63.80
2017-09-08T17:27:41.024Z,63.60
2017-09-08T17:30:08.712Z,63.70
2017-09-08T17:32:36.425Z,63.70
2017-09-08T17:35:04.085Z,63.60
2017-09-08T17:37:31.801Z,63.80
2017-09-08T17:39:59.468Z,63.60
2017-09-08T17:42:27.956Z,68.80
2017-09-08T17:44:56.390Z,69.30
2017-09-08T17:47:24.100Z,69.20
2017-09-08T17:49:52.526Z,70.30
2017-09-08T17:52:20.187Z,70.20
2017-09-08T17:54:47.892Z,71.30
2017-09-08T17:57:15.556Z,71.80
2017-09-08T17:59:44.016Z,72.50
2017-09-08T18:02:11.715Z,72.40
2017-09-08T18:04:39.423Z,72.90
2017-09-08T18:07:07.082Z,73.70
2017-09-08T18:09:34.784Z,74.50
2017-09-08T18:12:03.225Z,75.90
2017-09-08T18:14:30.927Z,75.90
2017-09-08T18:16:58.587Z,76.60
2017-09-08T18:19:26.291Z,76.60
2017-09-08T18:21:54.711Z,77.40
2017-09-08T18:24:23.219Z,76.30
2017-09-08T18:26:50.875Z,76.30
2017-09-08T18:29:18.582Z,76.70
2017-09-08T18:31:46.236Z,76.60
2017-09-08T18:34:14.002Z,76.00
2017-09-08T18:36:41.665Z,76.90
2017-09-08T18:39:09.373Z,76.40
2017-09-08T18:41:37.040Z,76.60
2017-09-08T18:44:04.771Z,76.40
2017-09-08T18:46:33.249Z,76.40
2017-09-08T18:49:01.732Z,76.30
2017-09-08T18:51:29.447Z,76.30
2017-09-08T18:53:57.096Z,76.00
2017-09-08T18:56:24.800Z,76.10
2017-09-08T18:58:53.224Z,75.60
2017-09-08T19:01:20.941Z,75.60
2017-09-08T19:03:49.384Z,74.80
2017-09-08T19:06:17.084Z,74.70
2017-09-08T19:08:45.520Z,74.80
2017-09-08T19:11:13.224Z,74.80
2017-09-08T19:13:41.652Z,74.20
2017-09-08T19:16:09.364Z,74.20
2017-09-08T19:18:37.780Z,73.80
2017-09-08T19:21:05.483Z,73.80
2017-09-08T19:23:33.911Z,74.00
2017-09-08T19:26:02.675Z,74.00
2017-09-08T19:28:32.047Z,73.40
2017-09-08T19:31:00.529Z,73.80
2017-09-08T19:33:28.192Z,73.80
2017-09-08T19:35:57.718Z,73.50
2017-09-08T19:38:26.101Z,73.40
2017-09-08T19:40:53.868Z,73.30
2017-09-08T19:43:22.331Z,73.20
2017-09-08T19:45:49.993Z,73.10
2017-09-08T19:48:17.690Z,73.00
2017-09-08T19:50:45.351Z,72.60
2017-09-08T19:53:13.756Z,72.50
2017-09-08T19:55:42.188Z,72.10
2017-09-08T20:00:42.716Z,72.60
2017-09-08T20:03:10.452Z,71.90
2017-09-08T20:05:38.915Z,71.10
2017-09-08T20:08:07.398Z,71.70
2017-09-08T20:10:35.839Z,71.40
2017-09-08T20:13:03.553Z,71.40
2017-09-08T20:15:31.236Z,71.10
2017-09-08T20:17:58.949Z,71.00
2017-09-08T20:20:27.381Z,70.50
2017-09-08T20:22:55.089Z,70.50
2017-09-08T20:25:23.525Z,70.80
2017-09-08T20:27:51.229Z,70.80
2017-09-08T20:30:19.655Z,70.20
2017-09-08T20:32:47.361Z,70.10
2017-09-08T20:35:15.798Z,70.40
2017-09-08T20:37:43.503Z,70.40
2017-09-08T20:40:11.959Z,69.90
2017-09-08T20:42:39.660Z,69.80
2017-09-08T20:45:07.317Z,70.00
2017-09-08T20:47:35.068Z,69.70
2017-09-08T20:50:02.741Z,69.70
2017-09-08T20:52:30.399Z,69.60
2017-09-08T20:54:58.115Z,69.70
2017-09-08T20:57:25.800Z,70.50
2017-09-08T20:59:54.308Z,70.30
2017-09-08T21:02:22.002Z,70.20
2017-09-08T21:04:49.717Z,70.00
2017-09-08T21:07:17.492Z,69.70
2017-09-08T21:09:45.264Z,70.10
2017-09-08T21:12:13.055Z,69.70
2017-09-08T21:14:40.995Z,69.90
2017-09-08T21:17:08.668Z,70.30
2017-09-08T21:19:36.380Z,70.10
2017-09-08T21:22:04.815Z,69.70
2017-09-08T21:24:32.522Z,69.60
2017-09-08T21:27:01.177Z,69.30
2017-09-08T21:29:28.882Z,69.20
2017-09-08T21:31:56.548Z,69.40
2017-09-08T21:34:24.258Z,69.60
2017-09-08T21:36:51.927Z,69.30
2017-09-08T21:39:20.413Z,70.00
2017-09-08T21:41:48.836Z,69.70
2017-09-08T21:44:16.547Z,69.70
2017-09-08T21:46:44.975Z,70.10
2017-09-08T21:49:12.636Z,70.00
2017-09-08T21:51:40.345Z,70.00
2017-09-08T21:54:08.796Z,68.80
2017-09-08T21:56:36.498Z,68.80
2017-09-08T21:59:04.152Z,69.00
2017-09-08T22:01:31.859Z,69.40
2017-09-08T22:03:59.516Z,70.00
2017-09-08T22:06:27.220Z,69.40
2017-09-08T22:08:55.643Z,69.30
2017-09-08T22:11:23.349Z,69.30
2017-09-08T22:13:51.019Z,69.50
2017-09-08T22:16:19.483Z,69.80
2017-09-08T22:18:47.134Z,69.80
2017-09-08T22:21:14.843Z,69.70
2017-09-08T22:23:42.531Z,69.50
2017-09-08T22:26:10.235Z,69.80
2017-09-08T22:28:38.664Z,69.20
2017-09-08T22:31:06.361Z,69.20
2017-09-08T22:33:34.017Z,68.70
2017-09-08T22:36:01.724Z,69.00
2017-09-08T22:38:29.387Z,69.20
2017-09-08T22:40:57.100Z,69.00
2017-09-08T22:43:24.756Z,69.20
2017-09-08T22:45:52.481Z,68.90
2017-09-08T22:48:20.144Z,68.70
2017-09-08T22:50:47.845Z,68.80
2017-09-08T22:53:16.311Z,69.40
2017-09-08T22:55:43.971Z,68.60
2017-09-08T22:58:11.678Z,68.60
2017-09-08T23:00:39.351Z,69.10
2017-09-08T23:03:07.052Z,68.30
2017-09-08T23:05:34.860Z,69.20
2017-09-08T23:08:02.562Z,69.10
2017-09-08T23:10:30.228Z,68.90
2017-09-08T23:12:57.919Z,68.30
2017-09-08T23:15:25.576Z,68.40
2017-09-08T23:17:55.218Z,69.30
2017-09-08T23:20:24.516Z,68.60
2017-09-08T23:22:53.379Z,68.70
2017-09-08T23:25:22.895Z,68.40
2017-09-08T23:27:51.632Z,68.30
2017-09-08T23:30:20.515Z,67.80
2017-09-08T23:32:48.215Z,67.70
2017-09-08T23:35:15.876Z,68.60
2017-09-08T23:37:43.584Z,67.90
2017-09-08T23:40:11.244Z,67.80
2017-09-08T23:42:38.944Z,68.00
2017-09-08T23:45:07.363Z,68.10
2017-09-08T23:47:35.072Z,68.10
2017-09-08T23:50:03.520Z,68.10
2017-09-08T23:52:31.176Z,68.00
2017-09-08T23:54:58.875Z,67.70
2017-09-08T23:57:27.315Z,67.90
2017-09-08T23:59:55.016Z,67.90
